Nearby METAR Reports

 

KCPS - Cahokia/St Louis, Illinois, USA
Distance from station: ESE 9mi, 15km
Updated: Thu, 13-Jun-2024 12:53pm CDT
Clear
Clear
 Wind from SW
Wind: SW 10 mph, 17 km/h
Temperature: 91°F, 33°C
Heat Index: 94°F, 34°C
Dew Point: 66°F, 19°C
Humidity: 44%
Barometer: 29.92 inHg, 1013.2 hPa
Clouds: Clear
Visibility: 10 miles, 16 km
2024/06/13 17:53 KCPS 131753Z 22009KT 190V270 10SM CLR 33/19 A2992 RMK AO2 SLP125 T03280194 10328 20211 58007
KSTL - St. Louis, Missouri, USA
Distance from station: NNW 11mi, 18km
Updated: Thu, 13-Jun-2024 12:51pm CDT
Clear
Clear
 Wind from S
Wind: S 13 mph, 20 km/h
Temperature: 91°F, 33°C
Heat Index: 94°F, 34°C
Dew Point: 66°F, 19°C
Humidity: 44%
Barometer: 29.91 inHg, 1012.9 hPa
Clouds: Clear
Visibility: 10 miles, 16 km
2024/06/13 17:51 KSTL 131751Z 19011KT 10SM CLR 33/19 A2991 RMK AO2 SLP115 T03330189 10333 20239 58008
 
KSUS - St. Louis/Spirit, Missouri, USA
Distance from station: W 18mi, 30km
Updated: Thu, 13-Jun-2024 12:54pm CDT
Clear
Clear
 Wind from S
Wind: S 8 mph, 13 km/h
Temperature: 88°F, 31°C
Heat Index: 93°F, 34°C
Dew Point: 70°F, 21°C
Humidity: 55%
Barometer: 29.90 inHg, 1012.5 hPa
Clouds: Clear
Visibility: 10 miles, 16 km
2024/06/13 17:54 KSUS 131754Z 19007KT 10SM CLR 31/21 A2990 RMK AO2 SLP114 T03110206 10317 20217 58010
KSET - St. Charles, Missouri, USA
Distance from station: NNW 24mi, 39km
Updated: Thu, 13-Jun-2024 12:54pm CDT
Clear
Clear
 Wind from SW
Wind: SW 10 mph, 17 km/h
Temperature: 91°F, 33°C
Heat Index: 94°F, 34°C
Dew Point: 66°F, 19°C
Humidity: 44%
Barometer: 29.89 inHg, 1012.2 hPa
Clouds: Clear
Visibility: 10 miles, 16 km
2024/06/13 17:54 KSET 131754Z AUTO 22009KT 10SM CLR 33/19 A2989 RMK AO2 SLP114 T03280194 10328 20217 58011
 
KALN - Alton/St Louis R, Illinois, USA
Distance from station: NE 25mi, 40km
Updated: Thu, 13-Jun-2024 12:50pm CDT
Clear
Clear
 Wind from SSW
Wind: SSW 14 mph, 22 km/h
Temperature: 88°F, 31°C
Heat Index: 89°F, 32°C
Dew Point: 63°F, 17°C
Humidity: 43%
Barometer: 29.92 inHg, 1013.2 hPa
Clouds: Clear
Visibility: 10 miles, 16 km
2024/06/13 17:50 KALN 131750Z 20012KT 10SM CLR 31/17 A2992
KBLV - Scott Afb/Bellev, Illinois, USA
Distance from station: E 26mi, 43km
Updated: Thu, 13-Jun-2024 12:55pm CDT
Clear
Clear
 Wind from SSW
Wind: SSW 10 mph, 17 km/h
Temperature: 90°F, 32°C
Heat Index: 94°F, 34°C
Dew Point: 68°F, 20°C
Humidity: 49%
Barometer: 29.92 inHg, 1013.2 hPa
Clouds: Clear
Visibility: 10 miles, 16 km
2024/06/13 17:55 KBLV 131755Z 20009KT 10SM CLR 32/20 A2992 RMK AO2A SLP131 T03190198 10321 20205 $
 
KFYG - Washington, Missouri, USA
Distance from station: W 37mi, 59km
Updated: Thu, 13-Jun-2024 1:15pm CDT

 Wind from SSW
Wind: SSW 8 mph, 13 km/h, Gust: 14 mph, 22 km/h
Temperature: 88°F, 31°C
Heat Index: 96°F, 36°C
Dew Point: 73°F, 23°C
Humidity: 62%
Barometer: 29.90 inHg, 1012.5 hPa
Visibility: 10 miles, 16 km
2024/06/13 18:15 KFYG 131815Z AUTO 21007G12KT 10SM 31/23 A2990 RMK AO2
KSAR - Sparta, Illinois, USA
Distance from station: SE 45mi, 73km
Updated: Thu, 13-Jun-2024 1:15pm CDT
Clear
Clear
 Wind from S
Wind: S 13 mph, 20 km/h, Gust: 17 mph, 28 km/h
Temperature: 86°F, 30°C
Heat Index: 88°F, 31°C
Dew Point: 66°F, 19°C
Humidity: 52%
Barometer: 29.96 inHg, 1014.6 hPa
Clouds: Clear
Visibility: 10 miles, 16 km
2024/06/13 18:15 KSAR 131815Z AUTO 19011G15KT 10SM CLR 30/19 A2996 RMK AO2 T03000190